createdAt,value
2023-01-31T00:00:29.218Z,105.65
2023-01-31T00:03:36.481Z,107.39
2023-01-31T00:06:51.364Z,108.00
2023-01-31T00:09:58.184Z,100.20
2023-01-31T00:13:14.756Z,92.75
2023-01-31T00:16:24.408Z,99.72
2023-01-31T00:19:30.306Z,97.36
2023-01-31T00:22:37.267Z,96.98
2023-01-31T00:25:43.111Z,94.41
2023-01-31T00:28:57.824Z,97.54
2023-01-31T00:32:04.515Z,96.45
2023-01-31T00:35:12.384Z,92.20
2023-01-31T00:38:18.217Z,85.62
2023-01-31T00:41:29.263Z,85.38
2023-01-31T00:44:37.901Z,83.40
2023-01-31T00:47:44.594Z,83.23
2023-01-31T00:50:50.683Z,84.55
2023-01-31T00:53:58.490Z,88.00
2023-01-31T00:57:04.449Z,86.27
2023-01-31T01:00:32.651Z,79.63
2023-01-31T01:03:46.805Z,72.13
2023-01-31T01:06:53.679Z,68.86
2023-01-31T01:10:00.063Z,76.05
2023-01-31T01:13:24.138Z,78.91
2023-01-31T01:16:39.857Z,75.98
2023-01-31T01:19:46.707Z,67.52
2023-01-31T01:22:52.775Z,72.66
2023-01-31T01:25:59.366Z,80.71
2023-01-31T01:29:08.022Z,89.84
2023-01-31T01:32:17.391Z,82.70
2023-01-31T01:35:23.252Z,65.55
2023-01-31T01:38:30.374Z,56.96
2023-01-31T01:41:37.098Z,57.68
2023-01-31T01:44:53.603Z,55.73
2023-01-31T01:48:11.513Z,60.10
2023-01-31T01:51:22.268Z,72.34
2023-01-31T01:54:38.967Z,69.35
2023-01-31T01:57:53.365Z,61.50
2023-01-31T02:00:59.817Z,68.96
2023-01-31T02:04:17.574Z,49.66
2023-01-31T02:07:23.920Z,53.55
2023-01-31T02:10:40.014Z,39.98
2023-01-31T02:13:50.298Z,50.29
2023-01-31T02:16:56.903Z,43.10
2023-01-31T02:20:38.385Z,40.18
2023-01-31T02:24:28.548Z,40.35
2023-01-31T02:28:40.349Z,42.92
2023-01-31T02:32:40.721Z,53.50
2023-01-31T02:36:07.598Z,59.98
2023-01-31T02:39:32.445Z,39.21
2023-01-31T02:42:52.199Z,36.45
2023-01-31T02:46:17.702Z,40.54
2023-01-31T02:49:41.344Z,41.80
2023-01-31T02:53:03.128Z,65.87
2023-01-31T02:56:20.372Z,92.37
2023-01-31T02:59:32.203Z,83.31
2023-01-31T03:02:38.123Z,74.64
2023-01-31T03:05:47.430Z,82.94
2023-01-31T03:09:02.627Z,80.53
2023-01-31T03:12:39.110Z,69.30
2023-01-31T03:16:15.745Z,61.22
2023-01-31T03:19:31.128Z,67.37
2023-01-31T03:22:46.176Z,90.62
2023-01-31T03:25:54.529Z,108.56
2023-01-31T03:29:05.880Z,77.19
2023-01-31T03:32:23.581Z,50.48
2023-01-31T03:35:38.404Z,34.26
2023-01-31T03:39:03.351Z,30.61
2023-01-31T03:42:18.586Z,31.56
2023-01-31T03:45:37.842Z,32.35
2023-01-31T03:48:52.648Z,26.31
2023-01-31T03:52:11.507Z,28.24
2023-01-31T03:55:31.408Z,29.14
2023-01-31T03:58:48.803Z,30.76
2023-01-31T04:02:08.887Z,31.60
2023-01-31T04:05:22.175Z,35.05
2023-01-31T04:08:34.445Z,35.78
2023-01-31T04:11:53.542Z,40.32
2023-01-31T04:15:03.428Z,53.20
2023-01-31T04:18:10.081Z,74.32
2023-01-31T04:21:17.639Z,84.40
2023-01-31T04:24:24.346Z,92.60
2023-01-31T04:27:33.320Z,86.40
2023-01-31T04:30:41.167Z,74.25
2023-01-31T04:33:47.411Z,88.73
2023-01-31T04:36:58.020Z,103.64
2023-01-31T04:40:03.814Z,75.81
2023-01-31T04:43:21.141Z,79.58
2023-01-31T04:46:26.988Z,66.25
2023-01-31T04:49:33.685Z,66.31
2023-01-31T04:52:39.465Z,75.73
2023-01-31T04:55:46.092Z,79.30
2023-01-31T04:58:54.458Z,63.45
2023-01-31T05:02:01.112Z,74.92
2023-01-31T05:05:08.285Z,64.32
2023-01-31T05:08:14.901Z,72.36
2023-01-31T05:11:21.819Z,84.29
2023-01-31T05:14:31.477Z,69.60
2023-01-31T05:17:37.525Z,68.47
2023-01-31T05:20:44.418Z,78.04
2023-01-31T05:23:50.368Z,75.82
2023-01-31T05:26:58.838Z,58.49
2023-01-31T05:30:10.159Z,46.20
2023-01-31T05:33:17.159Z,39.82
2023-01-31T05:36:22.888Z,37.36
2023-01-31T05:39:31.256Z,58.78
2023-01-31T05:42:37.251Z,73.21
2023-01-31T05:45:46.773Z,80.68
2023-01-31T05:48:52.558Z,109.81
2023-01-31T05:52:02.371Z,118.82
2023-01-31T05:55:18.617Z,92.79
2023-01-31T05:58:25.872Z,117.37
2023-01-31T06:01:40.831Z,97.55
2023-01-31T06:04:47.639Z,75.01
2023-01-31T06:07:53.500Z,64.24
2023-01-31T06:11:00.057Z,52.33
2023-01-31T06:14:06.843Z,51.38
2023-01-31T06:17:19.054Z,49.77
2023-01-31T06:20:24.818Z,55.56
2023-01-31T06:23:31.998Z,75.90
2023-01-31T06:26:37.905Z,76.30
2023-01-31T06:29:44.584Z,84.15
2023-01-31T06:32:53.123Z,86.34
2023-01-31T06:36:03.029Z,78.27
2023-01-31T06:39:09.281Z,101.60
2023-01-31T06:42:15.867Z,60.92
2023-01-31T06:45:21.959Z,50.66
2023-01-31T06:48:31.666Z,67.26
2023-01-31T06:51:37.537Z,75.40
2023-01-31T06:54:44.158Z,50.89
2023-01-31T06:57:51.756Z,52.79
2023-01-31T07:00:58.971Z,63.23
2023-01-31T07:04:07.457Z,83.86
2023-01-31T07:07:14.049Z,120.66
2023-01-31T07:10:20.918Z,239.64
2023-01-31T07:13:28.683Z,241.09
2023-01-31T07:16:34.923Z,105.35
2023-01-31T07:19:45.590Z,117.94
2023-01-31T07:22:58.602Z,129.03
2023-01-31T07:26:08.105Z,151.79
2023-01-31T07:29:15.292Z,211.45
2023-01-31T07:32:25.043Z,204.76
2023-01-31T07:35:34.108Z,84.34
2023-01-31T07:38:40.715Z,123.23
2023-01-31T07:41:46.732Z,65.89
2023-01-31T07:44:53.694Z,86.57
2023-01-31T07:48:01.915Z,47.51
2023-01-31T07:51:11.929Z,58.57
2023-01-31T07:54:18.843Z,118.14
2023-01-31T07:57:29.750Z,132.23
2023-01-31T08:00:48.401Z,123.93
2023-01-31T08:03:55.736Z,70.34
2023-01-31T08:07:06.375Z,90.70
2023-01-31T08:10:17.497Z,118.10
2023-01-31T08:13:23.277Z,75.29
2023-01-31T08:16:32.149Z,75.80
2023-01-31T08:19:48.270Z,74.28
2023-01-31T08:23:00.082Z,119.32
2023-01-31T08:26:09.997Z,83.28
2023-01-31T08:29:16.718Z,127.03
2023-01-31T08:32:22.555Z,131.72
2023-01-31T08:35:30.408Z,103.01
2023-01-31T08:38:42.997Z,71.38
2023-01-31T08:41:49.673Z,76.96
2023-01-31T08:44:56.454Z,71.68
2023-01-31T08:48:04.076Z,71.18
2023-01-31T08:51:13.086Z,79.61
2023-01-31T08:54:22.257Z,82.10
2023-01-31T08:57:28.203Z,70.93
2023-01-31T09:00:35.886Z,80.03
2023-01-31T09:03:44.732Z,101.75
2023-01-31T09:06:52.083Z,84.03
2023-01-31T09:10:00.439Z,60.31
2023-01-31T09:13:10.647Z,57.17
2023-01-31T09:16:18.157Z,66.12
2023-01-31T09:19:25.576Z,91.34
2023-01-31T09:22:36.952Z,61.00
2023-01-31T09:25:47.914Z,60.21
2023-01-31T09:28:54.094Z,64.30
2023-01-31T09:32:00.973Z,68.64
2023-01-31T09:35:14.119Z,65.72
2023-01-31T09:38:20.936Z,95.54
2023-01-31T09:41:39.137Z,77.69
2023-01-31T09:44:59.716Z,65.91
2023-01-31T09:48:10.108Z,57.61
2023-01-31T09:51:20.013Z,65.12
2023-01-31T09:54:40.674Z,103.96
2023-01-31T09:58:08.107Z,95.84
2023-01-31T10:01:26.577Z,97.27
2023-01-31T10:05:07.795Z,119.36
2023-01-31T10:08:36.566Z,72.63
2023-01-31T10:11:52.202Z,73.83
2023-01-31T10:15:07.183Z,107.86
2023-01-31T10:18:26.122Z,62.88
2023-01-31T10:21:42.003Z,59.86
2023-01-31T10:25:00.012Z,72.17
2023-01-31T10:28:37.210Z,71.92
2023-01-31T10:31:54.574Z,68.77
2023-01-31T10:35:13.055Z,47.83
2023-01-31T10:38:31.407Z,64.37
2023-01-31T10:42:08.256Z,82.93
2023-01-31T10:45:22.494Z,67.58
2023-01-31T10:48:33.963Z,126.39
2023-01-31T10:52:06.907Z,183.01
2023-01-31T10:55:55.354Z,74.20
2023-01-31T10:59:08.034Z,82.51
2023-01-31T11:02:25.529Z,97.48
2023-01-31T11:05:52.285Z,67.53
2023-01-31T11:09:02.690Z,56.15
2023-01-31T11:12:11.697Z,104.93
2023-01-31T11:15:26.267Z,101.57
2023-01-31T11:18:47.911Z,63.83
2023-01-31T11:22:04.916Z,80.85
2023-01-31T11:25:25.472Z,85.38
2023-01-31T11:28:40.282Z,70.20
2023-01-31T11:31:50.887Z,69.78
2023-01-31T11:35:06.607Z,56.74
2023-01-31T11:38:27.969Z,132.18
2023-01-31T11:41:38.216Z,193.49
2023-01-31T11:44:59.930Z,193.33
2023-01-31T11:48:19.643Z,101.41
2023-01-31T11:51:34.232Z,101.18
2023-01-31T11:54:52.381Z,112.20
2023-01-31T11:58:04.845Z,159.02
2023-01-31T12:01:20.982Z,219.05
2023-01-31T12:04:38.116Z,205.50
2023-01-31T12:07:58.805Z,190.85
2023-01-31T12:11:32.153Z,187.91
2023-01-31T12:14:45.028Z,107.78
2023-01-31T12:17:53.997Z,91.29
2023-01-31T12:21:17.966Z,60.60
2023-01-31T12:24:43.797Z,49.78
2023-01-31T12:28:19.558Z,61.06
2023-01-31T12:31:52.795Z,83.76
2023-01-31T12:35:35.593Z,84.42
2023-01-31T12:39:02.153Z,63.82
2023-01-31T12:42:36.035Z,70.78
2023-01-31T12:46:09.918Z,82.99
2023-01-31T12:49:52.245Z,100.30
2023-01-31T12:53:41.296Z,80.59
2023-01-31T12:57:07.828Z,94.17
2023-01-31T13:00:40.364Z,109.52
2023-01-31T13:04:19.823Z,132.62
2023-01-31T13:07:41.762Z,123.97
2023-01-31T13:10:56.099Z,75.30
2023-01-31T13:14:08.934Z,67.86
2023-01-31T13:17:21.335Z,74.14
2023-01-31T13:20:43.011Z,164.35
2023-01-31T13:23:57.027Z,267.76
2023-01-31T13:27:14.655Z,172.98
2023-01-31T13:30:34.209Z,133.72
2023-01-31T13:33:54.014Z,100.20
2023-01-31T13:37:12.494Z,129.17
2023-01-31T13:40:25.608Z,104.20
2023-01-31T13:43:31.440Z,112.46
2023-01-31T13:46:53.941Z,172.09
2023-01-31T13:50:07.543Z,148.54
2023-01-31T13:53:29.531Z,246.90
2023-01-31T13:56:41.521Z,220.59
2023-01-31T13:59:59.441Z,216.00
2023-01-31T14:03:08.863Z,186.44
2023-01-31T14:06:15.618Z,135.43
2023-01-31T14:09:31.097Z,130.89
2023-01-31T14:12:41.224Z,122.48
2023-01-31T14:15:53.680Z,147.45
2023-01-31T14:19:00.570Z,133.71
2023-01-31T14:22:19.404Z,136.67
2023-01-31T14:25:45.732Z,134.89
2023-01-31T14:28:51.709Z,148.47
2023-01-31T14:32:02.255Z,150.92
2023-01-31T14:35:49.308Z,181.77
2023-01-31T14:39:54.558Z,163.14
2023-01-31T14:43:39.048Z,130.21
2023-01-31T14:47:17.201Z,162.19
2023-01-31T14:50:50.215Z,137.29
2023-01-31T14:54:38.957Z,111.33
2023-01-31T14:57:50.877Z,136.46
2023-01-31T15:01:04.348Z,139.52
2023-01-31T15:04:10.352Z,124.34
2023-01-31T15:07:20.539Z,163.57
2023-01-31T15:10:58.475Z,200.54
2023-01-31T15:14:34.366Z,287.32
2023-01-31T15:17:58.084Z,317.16
2023-01-31T15:21:18.387Z,320.07
2023-01-31T15:24:35.660Z,244.58
2023-01-31T15:27:47.718Z,324.13
2023-01-31T15:30:57.783Z,268.42
2023-01-31T15:34:23.041Z,303.37
2023-01-31T15:37:37.268Z,379.17
2023-01-31T15:40:44.035Z,287.59
2023-01-31T15:43:51.912Z,300.82
2023-01-31T15:47:03.789Z,290.20
2023-01-31T15:50:23.289Z,254.57
2023-01-31T15:53:33.242Z,225.02
2023-01-31T15:56:46.770Z,174.77
2023-01-31T15:59:53.816Z,190.68
2023-01-31T16:03:07.023Z,197.18
2023-01-31T16:06:29.003Z,193.55
2023-01-31T16:09:39.191Z,162.24
2023-01-31T16:12:51.986Z,170.84
2023-01-31T16:15:58.710Z,168.89
2023-01-31T16:19:10.565Z,205.10
2023-01-31T16:22:32.408Z,230.47
2023-01-31T16:25:40.224Z,280.68
2023-01-31T16:28:53.915Z,306.21
2023-01-31T16:32:00.955Z,377.36
2023-01-31T16:35:11.628Z,379.13
2023-01-31T16:38:29.975Z,381.77
2023-01-31T16:41:50.794Z,319.77
2023-01-31T16:44:57.410Z,295.02
2023-01-31T16:48:34.389Z,313.05
2023-01-31T16:51:49.552Z,338.24
2023-01-31T16:55:08.438Z,293.19
2023-01-31T16:58:53.114Z,297.01
2023-01-31T17:02:07.192Z,307.94
2023-01-31T17:05:26.318Z,312.95
2023-01-31T17:08:32.441Z,284.46
2023-01-31T17:11:43.959Z,271.03
2023-01-31T17:14:50.224Z,282.64
2023-01-31T17:17:58.894Z,266.79
2023-01-31T17:21:04.682Z,310.89
2023-01-31T17:24:17.981Z,342.58
2023-01-31T17:27:26.499Z,333.42
2023-01-31T17:30:33.812Z,299.08
2023-01-31T17:33:39.620Z,300.68
2023-01-31T17:36:49.373Z,306.51
2023-01-31T17:39:55.137Z,310.68
2023-01-31T17:43:07.353Z,335.26
2023-01-31T17:46:19.317Z,288.26
2023-01-31T17:49:26.412Z,294.05
2023-01-31T17:52:32.271Z,314.02
2023-01-31T17:55:45.754Z,284.84
2023-01-31T17:58:54.585Z,436.24
2023-01-31T18:02:03.126Z,482.21
2023-01-31T18:05:09.917Z,337.35
2023-01-31T18:08:17.797Z,321.92
2023-01-31T18:11:26.017Z,290.13
2023-01-31T18:14:39.007Z,278.62
2023-01-31T18:17:45.670Z,267.63
2023-01-31T18:20:52.317Z,275.35
2023-01-31T18:24:08.419Z,256.48
2023-01-31T18:27:33.565Z,255.63
2023-01-31T18:30:45.469Z,248.91
2023-01-31T18:33:52.270Z,227.43
2023-01-31T18:36:58.239Z,211.85
2023-01-31T18:40:19.490Z,246.01
2023-01-31T18:43:26.734Z,224.89
2023-01-31T18:46:35.958Z,271.00
2023-01-31T18:49:45.923Z,238.19
2023-01-31T18:52:52.534Z,287.73
2023-01-31T18:56:05.694Z,282.02
2023-01-31T18:59:12.530Z,308.11
2023-01-31T19:02:21.112Z,294.05
2023-01-31T19:05:28.612Z,282.85
2023-01-31T19:08:35.396Z,272.47
2023-01-31T19:11:43.700Z,277.05
2023-01-31T19:14:49.676Z,262.14
2023-01-31T19:17:58.888Z,276.13
2023-01-31T19:21:05.034Z,293.24
2023-01-31T19:24:17.172Z,276.81
2023-01-31T19:27:23.421Z,242.51
2023-01-31T19:30:30.113Z,210.68
2023-01-31T19:33:39.401Z,195.15
2023-01-31T19:36:50.370Z,198.01
2023-01-31T19:39:56.240Z,201.28
2023-01-31T19:43:05.018Z,187.07
2023-01-31T19:46:13.275Z,175.27
2023-01-31T19:49:23.378Z,170.10
2023-01-31T19:52:36.538Z,178.62
2023-01-31T19:55:43.214Z,175.17
2023-01-31T19:59:00.749Z,248.49
2023-01-31T20:02:07.378Z,202.46
2023-01-31T20:05:19.177Z,184.26
2023-01-31T20:08:29.152Z,194.83
2023-01-31T20:11:36.905Z,198.93
2023-01-31T20:14:43.639Z,201.37
2023-01-31T20:17:49.430Z,216.14
2023-01-31T20:20:59.110Z,206.67
2023-01-31T20:24:05.215Z,171.62
2023-01-31T20:27:11.823Z,175.80
2023-01-31T20:30:20.175Z,157.52
2023-01-31T20:33:26.930Z,165.42
2023-01-31T20:36:35.366Z,155.28
2023-01-31T20:39:44.477Z,226.53
2023-01-31T20:42:50.570Z,281.96
2023-01-31T20:46:06.568Z,260.44
2023-01-31T20:49:12.571Z,160.61
2023-01-31T20:52:24.462Z,163.52
2023-01-31T20:55:34.317Z,167.08
2023-01-31T20:58:44.084Z,233.78
2023-01-31T21:01:50.066Z,323.71
2023-01-31T21:05:12.097Z,249.05
2023-01-31T21:08:20.760Z,223.86
2023-01-31T21:11:27.854Z,161.61
2023-01-31T21:14:33.634Z,145.24
2023-01-31T21:17:40.833Z,145.81
2023-01-31T21:20:49.349Z,154.25
2023-01-31T21:24:08.990Z,154.65
2023-01-31T21:27:17.364Z,162.04
2023-01-31T21:30:36.352Z,157.41
2023-01-31T21:33:42.304Z,224.68
2023-01-31T21:36:49.060Z,281.71
2023-01-31T21:39:57.847Z,172.67
2023-01-31T21:43:04.397Z,163.50
2023-01-31T21:46:12.501Z,211.28
2023-01-31T21:49:19.529Z,263.27
2023-01-31T21:52:25.361Z,284.46
2023-01-31T21:55:34.500Z,193.76
2023-01-31T21:58:42.380Z,181.72
2023-01-31T22:01:51.790Z,193.29
2023-01-31T22:04:57.744Z,340.93
2023-01-31T22:08:04.374Z,331.83
2023-01-31T22:11:19.170Z,190.22
2023-01-31T22:14:26.246Z,183.79
2023-01-31T22:17:31.926Z,173.07
2023-01-31T22:20:40.672Z,169.02
2023-01-31T22:23:51.089Z,183.74
2023-01-31T22:27:00.357Z,191.33
2023-01-31T22:30:16.069Z,193.41
2023-01-31T22:33:22.863Z,211.69
2023-01-31T22:36:28.717Z,230.53
2023-01-31T22:39:35.269Z,231.35
2023-01-31T22:42:43.653Z,191.58
2023-01-31T22:45:53.758Z,181.59
2023-01-31T22:49:00.368Z,198.35
2023-01-31T22:52:07.388Z,187.73
2023-01-31T22:55:16.431Z,188.94
2023-01-31T22:58:25.904Z,185.43
2023-01-31T23:01:35.272Z,183.18
2023-01-31T23:04:42.165Z,197.61
2023-01-31T23:07:47.933Z,195.59
2023-01-31T23:10:54.539Z,209.65
2023-01-31T23:14:03.307Z,254.88
2023-01-31T23:17:28.376Z,271.23
2023-01-31T23:20:38.809Z,200.90
2023-01-31T23:23:46.813Z,164.32
2023-01-31T23:26:54.567Z,161.33
2023-01-31T23:30:03.795Z,158.86
2023-01-31T23:33:11.520Z,159.49
2023-01-31T23:36:18.145Z,150.38
2023-01-31T23:39:23.830Z,136.89
2023-01-31T23:42:30.964Z,139.01
2023-01-31T23:45:40.753Z,148.29
2023-01-31T23:48:47.413Z,138.99
2023-01-31T23:51:55.671Z,139.45
2023-01-31T23:55:08.475Z,130.76
2023-01-31T23:58:28.711Z,136.21
